Time;durP1;ratioP1;P1;durP2;ratioP2;P2;SDS_P1;SDS_P2;PMS_P1;PMS_P2;Temp;Humidity;BMP_temperature;BMP_pressure;BME280_temperature;BME280_humidity;BME280_pressure;Samples;Min_cycle;Max_cycle;Signal;HPM_P1;HPM_P2
2022/02/26 00:02:05;;;;;;;13.43;10.43;;;;;;;8.53;46.53;101836.50;1560720;89;21573;-52
2022/02/26 00:04:32;;;;;;;15.72;11.53;;;;;;;8.52;46.46;101845.58;1585105;89;21587;-52
2022/02/26 00:06:58;;;;;;;16.12;11.40;;;;;;;8.51;46.55;101842.57;1701827;83;21066;-52
2022/02/26 00:09:26;;;;;;;15.78;10.95;;;;;;;8.49;46.77;101848.19;1686025;83;21057;-51
2022/02/26 00:11:52;;;;;;;12.50;9.93;;;;;;;8.47;46.92;101846.86;1709994;82;21042;-52
2022/02/26 00:14:18;;;;;;;18.23;10.28;;;;;;;8.46;46.86;101848.16;1748366;81;20998;-51
2022/02/26 00:16:45;;;;;;;14.15;10.82;;;;;;;8.45;46.89;101842.55;1753736;81;21059;-51
2022/02/26 00:19:12;;;;;;;14.75;11.00;;;;;;;8.45;46.96;101852.92;1747654;80;21062;-52
2022/02/26 00:21:39;;;;;;;15.28;10.82;;;;;;;8.44;47.12;101853.77;1752078;80;21026;-53
2022/02/26 00:24:07;;;;;;;14.03;10.58;;;;;;;8.45;47.13;101852.92;1757226;80;21026;-51
2022/02/26 00:26:35;;;;;;;14.43;11.38;;;;;;;8.45;47.15;101854.22;1753009;80;21089;-51
2022/02/26 00:29:02;;;;;;;15.53;11.80;;;;;;;8.44;47.34;101862.42;1759246;80;21028;-51
2022/02/26 00:31:29;;;;;;;14.05;10.65;;;;;;;8.47;47.41;101862.88;1744406;81;21081;-52
2022/02/26 00:33:56;;;;;;;15.80;11.35;;;;;;;8.46;47.41;101858.11;1757144;80;21039;-52
2022/02/26 00:36:22;;;;;;;13.55;11.30;;;;;;;8.48;47.33;101859.41;1760995;80;21824;-51
2022/02/26 00:38:49;;;;;;;16.50;12.30;;;;;;;8.47;47.39;101862.42;1755502;80;21494;-51
2022/02/26 00:41:16;;;;;;;17.05;12.65;;;;;;;8.48;47.29;101862.00;1758076;80;21101;-51
2022/02/26 00:43:43;;;;;;;16.32;11.83;;;;;;;8.46;47.29;101860.70;1753421;80;21037;-52
2022/02/26 00:46:12;;;;;;;19.62;13.28;;;;;;;8.46;47.38;101863.30;1754350;80;21030;-51
2022/02/26 00:51:24;;;;;;;19.37;12.85;;;;;;;8.47;47.65;101862.42;1749379;81;20995;-51
2022/02/26 00:53:51;;;;;;;18.37;12.90;;;;;;;8.50;47.71;101869.35;1755573;81;21337;-51
2022/02/26 00:56:17;;;;;;;19.07;12.82;;;;;;;8.51;47.67;101865.92;1752507;80;21080;-51
2022/02/26 00:58:44;;;;;;;18.20;13.15;;;;;;;8.53;47.82;101875.41;1755906;80;21049;-51
2022/02/26 01:01:11;;;;;;;17.32;12.95;;;;;;;8.55;47.96;101875.45;1757286;80;21054;-51
2022/02/26 01:03:37;;;;;;;17.50;12.00;;;;;;;8.55;48.09;101871.55;1770205;80;21018;-52
2022/02/26 01:06:04;;;;;;;17.73;12.90;;;;;;;8.54;48.18;101871.09;1748436;80;21084;-51
2022/02/26 01:08:31;;;;;;;18.87;13.32;;;;;;;8.54;48.28;101869.80;1744594;81;21033;-51
2022/02/26 01:10:57;;;;;;;19.60;13.62;;;;;;;8.51;48.36;101873.70;1767030;80;20980;-51
2022/02/26 01:13:24;;;;;;;17.65;13.10;;;;;;;8.53;48.51;101877.16;1747098;80;21098;-51
2022/02/26 01:15:50;;;;;;;16.77;11.18;;;;;;;8.52;48.65;101881.48;1756277;80;20971;-51
2022/02/26 01:18:17;;;;;;;18.27;12.45;;;;;;;8.51;48.75;101873.70;1744531;80;21007;-51
2022/02/26 01:20:44;;;;;;;14.70;11.22;;;;;;;8.51;48.82;101874.54;1749273;80;21031;-51
2022/02/26 01:23:10;;;;;;;16.52;11.38;;;;;;;8.51;48.92;101881.48;1768516;80;21030;-52
2022/02/26 01:25:37;;;;;;;14.98;10.75;;;;;;;8.50;49.06;101884.50;1745111;80;21015;-52
2022/02/26 01:28:04;;;;;;;14.43;10.82;;;;;;;8.49;49.18;101881.91;1758154;80;21001;-53
2022/02/26 01:30:32;;;;;;;15.03;11.22;;;;;;;8.50;49.23;101882.33;1750677;80;21002;-51
2022/02/26 01:32:59;;;;;;;16.35;11.20;;;;;;;8.52;49.24;101887.09;1756493;80;21054;-52
2022/02/26 01:35:25;;;;;;;13.32;10.78;;;;;;;8.52;49.20;101885.37;1783333;80;21085;-52
2022/02/26 01:37:52;;;;;;;13.28;10.45;;;;;;;8.50;49.19;101882.33;1760050;80;20979;-51
2022/02/26 01:40:19;;;;;;;14.40;11.12;;;;;;;8.48;49.18;101885.34;1763440;80;21065;-51
2022/02/26 01:42:46;;;;;;;16.73;12.05;;;;;;;8.45;49.03;101886.64;1758988;80;20972;-52
2022/02/26 01:45:15;;;;;;;14.68;10.82;;;;;;;8.41;49.13;101878.41;1763101;80;21008;-52
2022/02/26 01:47:42;;;;;;;15.48;11.10;;;;;;;8.37;49.28;101881.39;1751165;81;21112;-52
2022/02/26 01:50:13;;;;;;;14.75;11.03;;;;;;;8.37;49.40;101888.30;1754361;80;21027;-51
2022/02/26 01:52:41;;;;;;;15.72;11.18;;;;;;;8.33;49.45;101887.84;1761051;80;20968;-52
2022/02/26 01:55:09;;;;;;;13.95;10.05;;;;;;;8.31;49.63;101896.05;1742088;81;21037;-51
2022/02/26 01:57:36;;;;;;;15.28;11.05;;;;;;;8.33;49.79;101900.39;1757249;80;20998;-53
2022/02/26 02:00:05;;;;;;;12.90;10.35;;;;;;;8.35;49.90;101902.98;1742404;80;20994;-52
2022/02/26 02:02:32;;;;;;;14.75;11.85;;;;;;;8.35;49.95;101905.58;1773557;80;21458;-52
2022/02/26 02:04:59;;;;;;;13.43;10.82;;;;;;;8.34;50.00;101903.44;1757552;80;21530;-52
2022/02/26 02:07:25;;;;;;;14.30;9.85;;;;;;;8.37;50.13;101909.92;1757154;80;21580;-52
2022/02/26 02:09:52;;;;;;;13.78;10.45;;;;;;;8.38;50.02;101900.42;1769031;80;20991;-51
2022/02/26 02:12:19;;;;;;;14.33;10.40;;;;;;;8.35;49.97;101899.09;1756972;80;21026;-51
2022/02/26 02:14:47;;;;;;;14.80;10.08;;;;;;;8.33;49.93;101907.30;1760413;80;21062;-52
2022/02/26 02:17:13;;;;;;;14.20;10.45;;;;;;;8.31;49.83;101903.41;1748870;80;21121;-52
2022/02/26 02:19:41;;;;;;;16.32;11.48;;;;;;;8.28;49.79;101903.83;1749667;80;21031;-52
2022/02/26 02:22:08;;;;;;;16.67;12.60;;;;;;;8.28;49.95;101909.02;1753722;81;21545;-52
2022/02/26 02:24:34;;;;;;;19.05;13.55;;;;;;;8.24;50.14;101907.65;1759526;80;21065;-52
2022/02/26 02:27:02;;;;;;;20.97;13.75;;;;;;;8.22;50.53;101910.66;1763501;80;20991;-51
2022/02/26 02:29:28;;;;;;;18.23;13.43;;;;;;;8.19;50.87;101913.67;1755683;80;21058;-52
2022/02/26 02:31:55;;;;;;;16.85;13.20;;;;;;;8.18;51.14;101914.09;1751884;80;21557;-52
2022/02/26 02:34:21;;;;;;;18.55;13.45;;;;;;;8.17;51.24;101914.09;1745888;81;21513;-52
2022/02/26 02:36:48;;;;;;;18.87;13.53;;;;;;;8.17;51.25;101912.38;1754493;81;21054;-51
2022/02/26 02:39:15;;;;;;;22.77;14.55;;;;;;;8.16;51.33;101914.97;1753360;81;20992;-52
2022/02/26 02:41:41;;;;;;;17.27;13.25;;;;;;;8.16;51.49;101917.56;1753838;81;21152;-52
2022/02/26 02:44:10;;;;;;;17.92;13.48;;;;;;;8.16;51.37;101923.59;1756072;80;21041;-52
2022/02/26 02:46:36;;;;;;;21.30;13.45;;;;;;;8.18;51.30;101924.47;1758913;80;21060;-52
2022/02/26 02:49:03;;;;;;;18.73;13.95;;;;;;;8.20;51.28;101927.09;1760336;80;20998;-52
2022/02/26 02:51:29;;;;;;;17.87;13.68;;;;;;;8.19;51.29;101926.22;1750385;80;21013;-52
2022/02/26 02:53:56;;;;;;;18.02;13.83;;;;;;;8.21;51.23;101937.47;1748983;80;21061;-52
2022/02/26 02:56:22;;;;;;;19.45;14.05;;;;;;;8.18;51.09;101941.77;1756851;80;20972;-52
2022/02/26 02:58:49;;;;;;;19.55;13.43;;;;;;;8.12;51.23;101939.98;1757899;80;21002;-52
2022/02/26 03:01:16;;;;;;;18.07;12.63;;;;;;;8.07;51.20;101944.28;1756324;80;21572;-52
2022/02/26 03:03:42;;;;;;;17.12;13.15;;;;;;;8.02;51.19;101948.55;1758657;80;21019;-52
2022/02/26 03:06:09;;;;;;;19.35;12.73;;;;;;;7.96;50.99;101953.69;1754613;80;21042;-52
2022/02/26 03:08:36;;;;;;;17.50;13.10;;;;;;;7.92;51.04;101956.23;1756213;80;21555;-53
2022/02/26 03:11:03;;;;;;;15.48;12.80;;;;;;;7.88;51.08;101957.95;1761311;80;20991;-52
2022/02/26 03:13:34;;;;;;;16.20;11.68;;;;;;;7.87;51.11;101962.67;1763687;80;21042;-51
2022/02/26 03:16:00;;;;;;;18.77;12.65;;;;;;;7.85;50.84;101966.97;1759456;80;21100;-51
2022/02/26 03:18:28;;;;;;;16.15;12.10;;;;;;;7.83;50.64;101963.50;1745046;80;21034;-51
2022/02/26 03:20:55;;;;;;;17.37;12.95;;;;;;;7.80;50.49;101967.38;1757150;80;21467;-51
2022/02/26 03:23:24;;;;;;;14.87;11.28;;;;;;;7.82;50.34;101968.69;1754087;80;21483;-52
2022/02/26 03:25:51;;;;;;;15.00;12.45;;;;;;;7.82;50.54;101972.16;1759217;80;21448;-52
2022/02/26 03:28:17;;;;;;;14.47;11.90;;;;;;;7.83;50.52;101969.98;1763434;80;21015;-52
2022/02/26 03:30:45;;;;;;;15.03;12.05;;;;;;;7.84;50.53;101980.80;1745552;80;21124;-51
2022/02/26 03:33:11;;;;;;;14.98;11.50;;;;;;;7.84;50.39;101978.22;1752032;80;21088;-52
2022/02/26 03:35:39;;;;;;;15.43;11.93;;;;;;;7.85;50.39;101981.23;1745714;80;21030;-52
2022/02/26 03:38:06;;;;;;;13.88;10.93;;;;;;;7.86;50.48;101977.80;1754480;80;21062;-51
2022/02/26 03:40:34;;;;;;;16.90;12.33;;;;;;;7.86;50.36;101979.52;1768319;80;21494;-51
2022/02/26 03:43:01;;;;;;;16.73;12.25;;;;;;;7.83;50.55;101980.80;1759137;80;20991;-52
2022/02/26 03:45:28;;;;;;;15.05;12.20;;;;;;;7.81;50.45;101982.05;1740895;81;21566;-51
2022/02/26 03:47:55;;;;;;;15.50;11.88;;;;;;;7.80;50.58;101982.93;1752643;80;21065;-52
2022/02/26 03:50:23;;;;;;;16.30;11.85;;;;;;;7.79;50.81;101978.59;1755262;80;21086;-52
2022/02/26 03:52:49;;;;;;;16.62;12.60;;;;;;;7.74;51.15;101982.87;1753139;80;21542;-52
2022/02/26 03:55:16;;;;;;;17.15;12.23;;;;;;;7.70;51.22;101993.19;1772902;80;21074;-51
2022/02/26 03:57:42;;;;;;;18.62;13.78;;;;;;;7.69;51.32;101981.08;1760891;80;21049;-51
2022/02/26 04:00:11;;;;;;;19.42;13.68;;;;;;;7.69;51.46;101984.54;1760243;80;21066;-51
2022/02/26 04:02:42;;;;;;;15.88;11.35;;;;;;;7.72;51.40;101982.41;1756563;80;20998;-52
2022/02/26 04:05:09;;;;;;;16.40;12.20;;;;;;;7.70;51.20;101978.52;1755907;80;21664;-52
2022/02/26 04:07:38;;;;;;;18.30;12.90;;;;;;;7.71;51.35;101984.55;1748707;80;21594;-51
2022/02/26 04:10:05;;;;;;;16.97;13.38;;;;;;;7.70;51.57;101990.18;1760210;80;21026;-52
2022/02/26 04:12:33;;;;;;;18.07;13.83;;;;;;;7.72;51.44;101997.54;1750171;80;21038;-52
2022/02/26 04:15:00;;;;;;;17.00;12.88;;;;;;;7.72;51.41;102005.31;1758027;80;21006;-52
2022/02/26 04:17:28;;;;;;;23.60;15.80;;;;;;;7.70;51.49;102007.02;1753401;80;21033;-52
2022/02/26 04:19:55;;;;;;;20.27;14.23;;;;;;;7.68;51.74;102006.14;1761148;80;21038;-52
2022/02/26 04:22:21;;;;;;;20.20;13.95;;;;;;;7.66;51.95;102005.25;1761053;80;21050;-52
2022/02/26 04:24:49;;;;;;;20.75;15.23;;;;;;;7.64;51.99;102013.44;1761106;80;21030;-52
2022/02/26 04:27:16;;;;;;;20.08;14.45;;;;;;;7.62;52.21;102022.91;1749390;81;21086;-52
2022/02/26 04:29:42;;;;;;;22.22;16.42;;;;;;;7.60;52.36;102025.91;1743319;81;21023;-52
2022/02/26 04:32:09;;;;;;;22.58;15.75;;;;;;;7.54;52.23;102021.97;1772887;80;21030;-52
2022/02/26 04:34:36;;;;;;;21.33;16.67;;;;;;;7.50;52.32;102025.34;1757819;80;20998;-51
2022/02/26 04:37:03;;;;;;;22.80;16.95;;;;;;;7.44;52.44;102029.16;1748951;80;20998;-52
2022/02/26 04:39:30;;;;;;;24.10;16.90;;;;;;;7.43;52.48;102027.44;1761877;80;21058;-52
2022/02/26 04:41:56;;;;;;;29.40;18.60;;;;;;;7.41;52.65;102029.15;1754135;80;21568;-52
2022/02/26 04:44:23;;;;;;;23.10;17.07;;;;;;;7.40;52.67;102033.45;1753395;81;21532;-52
2022/02/26 04:46:49;;;;;;;21.80;17.67;;;;;;;7.42;52.58;102035.20;1755255;80;21010;-52
2022/02/26 04:49:16;;;;;;;28.85;18.27;;;;;;;7.43;52.61;102039.09;1765074;80;21050;-52
2022/02/26 04:51:42;;;;;;;20.92;16.15;;;;;;;7.45;52.55;102041.70;1767872;80;21546;-52
2022/02/26 04:54:12;;;;;;;24.72;17.95;;;;;;;7.42;52.57;102051.59;1748633;81;21022;-52
2022/02/26 04:56:38;;;;;;;25.62;18.60;;;;;;;7.39;52.68;102051.56;1754878;80;21011;-51
2022/02/26 04:59:05;;;;;;;27.15;19.02;;;;;;;7.35;52.67;102049.80;1750589;80;21022;-52
2022/02/26 05:01:32;;;;;;;23.75;17.00;;;;;;;7.33;52.86;102054.09;1754091;80;21033;-52
2022/02/26 05:03:58;;;;;;;28.00;18.82;;;;;;;7.32;53.04;102057.51;1753065;81;21022;-52
2022/02/26 05:06:24;;;;;;;25.90;18.35;;;;;;;7.32;53.07;102073.05;1762965;80;21045;-52
2022/02/26 05:08:52;;;;;;;25.05;17.37;;;;;;;7.29;52.95;102067.84;1760200;81;21502;-52
2022/02/26 05:11:18;;;;;;;26.95;18.37;;;;;;;7.31;52.98;102077.80;1765465;80;21057;-51
2022/02/26 05:13:46;;;;;;;27.22;19.40;;;;;;;7.32;53.19;102080.81;1744526;81;21005;-52
2022/02/26 05:16:13;;;;;;;27.65;18.00;;;;;;;7.32;53.25;102077.80;1753661;80;21043;-52
2022/02/26 05:18:40;;;;;;;23.75;17.73;;;;;;;7.30;53.25;102077.34;1749045;80;21037;-52
2022/02/26 05:21:08;;;;;;;23.65;17.32;;;;;;;7.24;53.17;102079.44;1768557;80;21007;-52
2022/02/26 05:23:35;;;;;;;25.90;17.95;;;;;;;7.20;53.28;102072.89;1769127;80;21050;-52
2022/02/26 05:26:01;;;;;;;23.67;17.07;;;;;;;7.14;53.42;102077.99;1750509;80;21010;-52
2022/02/26 05:28:27;;;;;;;21.45;15.70;;;;;;;7.13;53.67;102076.27;1745068;81;21002;-52
2022/02/26 05:30:55;;;;;;;21.52;15.48;;;;;;;7.17;53.66;102071.58;1760720;80;21045;-52
2022/02/26 05:33:22;;;;;;;18.77;14.93;;;;;;;7.17;53.59;102083.23;1757409;80;21169;-52
2022/02/26 05:35:48;;;;;;;22.40;15.95;;;;;;;7.17;53.70;102080.64;1754161;81;21506;-52
2022/02/26 05:38:15;;;;;;;24.63;16.30;;;;;;;7.16;53.67;102084.94;1757251;80;22341;-51
2022/02/26 05:40:41;;;;;;;23.15;16.55;;;;;;;7.17;53.81;102090.99;1771096;80;21034;-52
2022/02/26 05:43:07;;;;;;;22.32;17.10;;;;;;;7.18;53.85;102097.89;1753543;80;21061;-52
2022/02/26 05:45:35;;;;;;;21.10;16.52;;;;;;;7.19;53.67;102097.06;1757669;80;21054;-52
2022/02/26 05:48:02;;;;;;;21.68;16.27;;;;;;;7.18;53.55;102100.48;1755374;80;21082;-52
2022/02/26 05:50:29;;;;;;;23.75;17.37;;;;;;;7.17;53.43;102098.76;1761048;80;21074;-52
2022/02/26 05:52:56;;;;;;;27.58;18.95;;;;;;;7.17;53.36;102109.11;1755200;80;21031;-52
2022/02/26 05:55:23;;;;;;;25.08;18.40;;;;;;;7.17;53.53;102103.94;1756263;80;21545;-52
2022/02/26 05:57:49;;;;;;;27.30;19.52;;;;;;;7.16;53.73;102117.71;1761127;80;21030;-52
2022/02/26 06:00:16;;;;;;;33.33;21.70;;;;;;;7.15;53.97;102121.16;1756218;80;21534;-52
2022/02/26 06:02:43;;;;;;;30.40;19.80;;;;;;;7.15;54.25;102126.34;1756751;80;21023;-52
2022/02/26 06:05:09;;;;;;;31.25;22.58;;;;;;;7.15;54.44;102131.52;1765247;80;21031;-52
2022/02/26 06:07:36;;;;;;;30.40;20.97;;;;;;;7.16;54.45;102130.66;1764457;80;21015;-52
2022/02/26 06:10:04;;;;;;;27.67;20.25;;;;;;;7.18;54.40;102136.30;1756348;80;20990;-52
2022/02/26 06:12:31;;;;;;;31.70;22.30;;;;;;;7.22;54.39;102133.33;1777767;80;21053;-52
2022/02/26 06:14:58;;;;;;;32.40;22.42;;;;;;;7.23;54.47;102135.08;1752076;80;21027;-52
2022/02/26 06:17:26;;;;;;;29.25;20.90;;;;;;;7.27;54.61;102135.56;1750402;80;21037;-52
2022/02/26 06:19:53;;;;;;;31.05;21.70;;;;;;;7.40;54.81;102136.16;1749480;81;21061;-52
2022/02/26 06:22:19;;;;;;;31.00;22.35;;;;;;;7.63;54.30;102142.50;1752853;80;21108;-52
2022/02/26 06:24:46;;;;;;;30.43;21.70;;;;;;;7.84;53.75;102141.88;1761661;80;20967;-52
2022/02/26 06:27:13;;;;;;;32.03;20.52;;;;;;;8.02;53.16;102148.14;1775432;80;21373;-51
2022/02/26 06:29:39;;;;;;;31.07;21.35;;;;;;;8.21;52.51;102147.48;1757560;80;21510;-52
2022/02/26 06:32:08;;;;;;;34.30;22.20;;;;;;;8.38;52.16;102155.89;1758801;80;21561;-52
2022/02/26 06:34:35;;;;;;;28.32;20.77;;;;;;;8.48;51.59;102153.39;1768100;80;22671;-52
2022/02/26 06:37:01;;;;;;;27.65;20.68;;;;;;;8.58;51.27;102158.22;1757827;80;20979;-52
2022/02/26 06:39:28;;;;;;;29.30;21.50;;;;;;;8.63;50.93;102161.33;1776586;80;21014;-51
2022/02/26 06:41:55;;;;;;;28.77;20.70;;;;;;;8.65;50.76;102163.92;1765669;80;20986;-52
2022/02/26 06:44:22;;;;;;;35.45;23.00;;;;;;;8.70;50.90;102167.41;1752429;80;21011;-52
2022/02/26 06:46:48;;;;;;;33.80;22.95;;;;;;;8.73;50.56;102170.92;1761820;80;21050;-52
2022/02/26 06:49:17;;;;;;;30.85;22.17;;;;;;;8.73;50.56;102168.74;1770676;80;21058;-52
2022/02/26 06:51:44;;;;;;;29.25;21.42;;;;;;;8.78;50.50;102170.92;1751836;80;20999;-52
2022/02/26 06:54:10;;;;;;;30.80;23.22;;;;;;;8.81;50.58;102164.48;1757414;80;21035;-52
2022/02/26 06:56:37;;;;;;;31.93;21.93;;;;;;;8.85;50.71;102161.92;1757277;80;21069;-52
2022/02/26 06:59:04;;;;;;;32.05;23.42;;;;;;;8.87;50.59;102174.48;1763867;80;20979;-52
2022/02/26 07:01:33;;;;;;;30.65;21.62;;;;;;;8.83;50.83;102172.73;1748088;80;21059;-53
2022/02/26 07:04:00;;;;;;;27.93;21.85;;;;;;;8.83;50.60;102171.85;1747768;80;21507;-52
2022/02/26 07:06:26;;;;;;;28.90;20.72;;;;;;;8.82;50.57;102175.32;1756596;80;20995;-52
2022/02/26 07:08:54;;;;;;;29.30;20.88;;;;;;;8.80;50.14;102178.30;1765172;80;21038;-52
2022/02/26 07:11:20;;;;;;;32.15;22.90;;;;;;;8.75;50.24;102178.29;1747538;80;21001;-51
2022/02/26 07:13:47;;;;;;;29.02;21.77;;;;;;;8.69;50.27;102187.74;1750960;80;21086;-51
2022/02/26 07:16:14;;;;;;;30.97;21.93;;;;;;;8.62;50.65;102193.72;1757610;80;21023;-51
2022/02/26 07:18:41;;;;;;;26.35;20.43;;;;;;;8.51;50.95;102194.06;1754697;80;21022;-51
2022/02/26 07:21:07;;;;;;;31.35;22.35;;;;;;;8.46;51.62;102197.03;1762034;80;21101;-51
2022/02/26 07:23:34;;;;;;;24.80;19.30;;;;;;;8.45;51.65;102200.50;1757812;80;21108;-52
2022/02/26 07:26:03;;;;;;;23.50;19.05;;;;;;;8.46;51.00;102207.41;1754193;80;21081;-52
2022/02/26 07:28:30;;;;;;;28.95;20.48;;;;;;;8.44;51.01;102210.41;1756854;80;21081;-51
2022/02/26 07:30:57;;;;;;;25.32;18.98;;;;;;;8.41;50.87;102216.88;1758417;80;21069;-51
2022/02/26 07:33:23;;;;;;;25.77;19.32;;;;;;;8.38;51.16;102206.46;1758327;80;21016;-51
2022/02/26 07:35:50;;;;;;;25.10;18.87;;;;;;;8.40;51.34;102215.12;1750494;80;21039;-52
2022/02/26 07:38:16;;;;;;;23.62;18.98;;;;;;;8.42;51.36;102218.61;1760339;80;20979;-53
2022/02/26 07:40:43;;;;;;;24.55;17.80;;;;;;;8.43;51.48;102218.61;1754848;80;21065;-52
2022/02/26 07:43:10;;;;;;;22.07;17.07;;;;;;;8.47;51.34;102219.54;1752233;80;21006;-52
2022/02/26 07:45:37;;;;;;;22.02;15.38;;;;;;;8.54;51.34;102221.31;1764994;80;21460;-51
2022/02/26 07:48:04;;;;;;;23.02;16.37;;;;;;;8.62;51.15;102225.73;1756561;80;21573;-52
2022/02/26 07:50:31;;;;;;;22.35;15.93;;;;;;;8.70;50.95;102220.19;1749620;80;21123;-52
2022/02/26 07:52:58;;;;;;;21.82;16.60;;;;;;;8.78;50.68;102231.92;1762202;80;22157;-52
2022/02/26 07:55:24;;;;;;;20.72;16.23;;;;;;;8.82;50.45;102233.72;1753808;80;20986;-52
2022/02/26 07:57:51;;;;;;;18.05;14.87;;;;;;;8.86;50.55;102237.63;1758169;80;21281;-52
2022/02/26 08:00:18;;;;;;;17.25;15.03;;;;;;;8.92;50.39;102231.64;1758563;80;21029;-52
2022/02/26 08:02:44;;;;;;;20.32;15.88;;;;;;;8.98;50.22;102222.60;1759659;80;21510;-53
2022/02/26 08:05:10;;;;;;;20.50;15.10;;;;;;;9.01;50.34;102226.08;1757947;80;21487;-52
2022/02/26 08:07:37;;;;;;;18.67;15.28;;;;;;;9.05;50.28;102226.97;1767179;80;21077;-51
2022/02/26 08:10:05;;;;;;;19.32;14.80;;;;;;;9.08;50.24;102223.11;1754516;80;20998;-51
2022/02/26 08:12:33;;;;;;;17.73;14.38;;;;;;;9.12;50.09;102225.30;1770223;80;21514;-52
2022/02/26 08:14:59;;;;;;;18.05;15.15;;;;;;;9.18;50.13;102224.03;1765975;80;21581;-51
2022/02/26 08:17:26;;;;;;;19.30;15.20;;;;;;;9.23;50.05;102225.83;1761434;80;20984;-52
2022/02/26 08:19:52;;;;;;;19.10;14.35;;;;;;;9.32;50.17;102227.17;1755367;80;21141;-52
2022/02/26 08:22:19;;;;;;;18.10;15.35;;;;;;;9.38;50.11;102233.70;1750285;80;20950;-51
2022/02/26 08:24:47;;;;;;;16.82;14.20;;;;;;;9.44;49.92;102227.25;1765015;80;21041;-52
2022/02/26 08:27:13;;;;;;;18.12;14.78;;;;;;;9.51;49.72;102230.34;1753796;80;21102;-52
2022/02/26 08:29:41;;;;;;;18.70;15.03;;;;;;;9.59;49.59;102228.64;1761943;80;21470;-52
2022/02/26 08:32:08;;;;;;;16.15;13.15;;;;;;;9.68;49.60;102226.11;1762913;80;21070;-51
2022/02/26 08:34:35;;;;;;;20.35;15.75;;;;;;;9.79;49.38;102228.31;1751364;81;21501;-52
2022/02/26 08:37:01;;;;;;;19.95;14.90;;;;;;;9.85;49.11;102238.73;1758418;80;20978;-52
2022/02/26 08:39:30;;;;;;;16.75;13.30;;;;;;;9.89;49.22;102241.38;1751906;80;21007;-52
2022/02/26 08:41:56;;;;;;;19.00;13.68;;;;;;;9.96;49.21;102252.22;1757596;80;21054;-51
2022/02/26 08:44:23;;;;;;;19.32;14.53;;;;;;;10.01;48.89;102242.72;1754671;80;21065;-52
2022/02/26 08:46:50;;;;;;;16.90;14.43;;;;;;;10.06;48.67;102242.29;1752045;80;21009;-52
2022/02/26 08:49:16;;;;;;;20.85;14.53;;;;;;;10.12;48.80;102234.58;1755300;80;21516;-53
2022/02/26 08:51:43;;;;;;;16.07;13.80;;;;;;;10.17;48.72;102231.11;1765979;80;21954;-51
2022/02/26 08:54:10;;;;;;;17.90;14.15;;;;;;;10.26;48.49;102234.18;1749765;80;21498;-52
2022/02/26 08:56:36;;;;;;;17.80;14.43;;;;;;;10.34;48.50;102238.97;1757354;80;20971;-52
2022/02/26 08:59:02;;;;;;;15.88;13.75;;;;;;;10.40;48.56;102235.08;1756465;81;20972;-52
2022/02/26 09:01:29;;;;;;;18.45;15.72;;;;;;;10.44;48.68;102229.89;1757116;80;21062;-53
2022/02/26 09:03:57;;;;;;;18.95;15.25;;;;;;;10.50;48.75;102238.14;1750197;81;21041;-52
2022/02/26 09:06:25;;;;;;;19.77;15.23;;;;;;;10.54;48.50;102235.55;1756557;80;21696;-52
2022/02/26 09:08:52;;;;;;;19.45;14.90;;;;;;;10.56;48.43;102227.73;1767133;80;21015;-52
2022/02/26 09:11:18;;;;;;;18.10;15.48;;;;;;;10.58;48.54;102226.87;1753194;80;21525;-53
2022/02/26 09:13:45;;;;;;;18.85;15.72;;;;;;;10.60;48.57;102219.94;1749895;80;21028;-54
2022/02/26 09:16:13;;;;;;;22.37;16.42;;;;;;;10.63;49.11;102226.89;1759626;80;21018;-51
2022/02/26 09:18:42;;;;;;;19.82;15.58;;;;;;;10.71;49.06;102222.56;1755034;80;21064;-53
2022/02/26 09:21:09;;;;;;;20.43;15.70;;;;;;;10.76;48.94;102226.02;1737088;80;21073;-53
2022/02/26 09:23:39;;;;;;;20.92;15.48;;;;;;;10.80;48.60;102227.75;1752547;80;21497;-53
2022/02/26 09:26:05;;;;;;;17.67;14.10;;;;;;;10.86;48.38;102231.66;1736005;80;21053;-53
2022/02/26 09:28:39;;;;;;;20.27;15.72;;;;;;;10.91;48.38;102229.95;1756555;80;20987;-54
2022/02/26 09:31:05;;;;;;;20.92;16.85;;;;;;;10.96;48.03;102237.34;1764205;80;21129;-54
2022/02/26 09:33:32;;;;;;;20.35;16.60;;;;;;;10.97;48.15;102240.78;1743048;80;21065;-54
2022/02/26 09:35:59;;;;;;;18.70;15.45;;;;;;;10.96;48.12;102245.58;1749136;80;21041;-54
2022/02/26 09:38:27;;;;;;;16.50;14.07;;;;;;;11.00;48.04;102250.80;1738641;80;21023;-54
2022/02/26 09:40:54;;;;;;;16.82;13.62;;;;;;;11.08;47.68;102252.09;1757164;80;21518;-52
2022/02/26 09:43:22;;;;;;;18.77;14.20;;;;;;;11.14;47.40;102252.96;1744217;80;21036;-52
2022/02/26 09:45:50;;;;;;;18.57;14.58;;;;;;;11.22;47.28;102248.61;1750416;80;21034;-53
2022/02/26 09:48:18;;;;;;;17.65;14.25;;;;;;;11.28;47.23;102253.81;1761707;80;21537;-52
2022/02/26 09:50:45;;;;;;;14.50;12.95;;;;;;;11.37;47.11;102256.39;1746146;80;21108;-52
2022/02/26 09:53:12;;;;;;;17.40;13.90;;;;;;;11.46;46.90;102252.48;1755627;80;21023;-52
2022/02/26 09:55:39;;;;;;;17.37;14.47;;;;;;;11.53;46.61;102258.98;1755553;80;21038;-52
2022/02/26 09:58:06;;;;;;;17.65;14.73;;;;;;;11.59;46.51;102262.88;1757056;80;21015;-53
2022/02/26 10:00:32;;;;;;;17.45;13.45;;;;;;;11.65;46.62;102261.56;1761718;80;21086;-51
2022/02/26 10:02:59;;;;;;;19.25;14.33;;;;;;;11.70;46.83;102263.34;1743969;80;20987;-52
2022/02/26 10:05:25;;;;;;;20.02;14.05;;;;;;;11.73;46.79;102263.31;1767194;80;21307;-52
2022/02/26 10:07:52;;;;;;;15.80;13.83;;;;;;;11.74;46.30;102264.20;1737045;80;22741;-52
2022/02/26 10:10:28;;;;;;;16.97;13.58;;;;;;;11.75;46.62;102252.88;1725875;81;21098;-53
2022/02/26 10:12:57;;;;;;;13.55;11.60;;;;;;;11.79;46.83;102255.91;1747349;80;21006;-52
2022/02/26 10:15:36;;;;;;;16.93;12.95;;;;;;;11.88;46.73;102254.59;1754293;80;21027;-52
2022/02/26 10:18:11;;;;;;;15.32;12.78;;;;;;;11.98;46.44;102257.16;1764172;80;21417;-53
2022/02/26 10:20:59;;;;;;;15.48;12.98;;;;;;;12.06;45.91;102253.20;1751863;80;20979;-52
2022/02/26 10:23:24;;;;;;;16.37;13.18;;;;;;;12.16;45.58;102261.42;1759970;80;21676;-52
2022/02/26 10:25:50;;;;;;;17.70;13.10;;;;;;;12.20;45.36;102250.09;1768570;80;21538;-53
2022/02/26 10:28:17;;;;;;;17.30;12.98;;;;;;;12.23;45.28;102245.75;1746043;80;21015;-53
2022/02/26 10:30:49;;;;;;;17.17;13.28;;;;;;;12.27;45.19;102247.90;1747043;80;20999;-54
2022/02/26 10:33:22;;;;;;;;;;;;;;;12.31;45.23;102250.92;1755487;80;21509;-52
2022/02/26 10:35:55;;;;;;;14.53;12.45;;;;;;;12.35;45.12;102247.42;1752402;80;20541;-52
2022/02/26 10:38:27;;;;;;;14.28;11.10;;;;;;;12.38;45.31;102255.25;1766197;80;21497;-54
2022/02/26 10:41:03;;;;;;;16.37;11.75;;;;;;;12.40;45.55;102252.62;1748825;81;21090;-51
2022/02/26 10:43:51;;;;;;;12.20;10.82;;;;;;;12.43;45.63;102253.89;1743674;80;21659;-51
2022/02/26 10:46:31;;;;;;;12.43;10.55;;;;;;;12.47;45.42;102253.87;1758040;80;21003;-54
2022/02/26 10:49:03;;;;;;;13.80;11.33;;;;;;;12.53;45.04;102249.92;1743904;80;21073;-52
2022/02/26 10:51:34;;;;;;;15.85;11.85;;;;;;;12.58;44.83;102246.85;1751314;81;21065;-54
2022/02/26 10:54:05;;;;;;;13.78;11.75;;;;;;;12.62;44.67;102247.27;1700838;82;21502;-54
2022/02/26 10:56:41;;;;;;;13.53;10.85;;;;;;;12.65;44.39;102253.75;1682074;83;21135;-54
2022/02/26 10:59:10;;;;;;;13.45;10.85;;;;;;;12.66;43.83;102258.11;1628849;86;21101;-54
2022/02/26 11:01:37;;;;;;;13.75;11.65;;;;;;;12.73;43.09;102258.52;1642515;85;21143;-54
2022/02/26 11:04:03;;;;;;;13.88;12.47;;;;;;;12.81;41.94;102263.25;1631740;84;21037;-55
2022/02/26 11:06:32;;;;;;;13.45;12.05;;;;;;;12.86;41.70;102260.14;1643701;84;21029;-54
2022/02/26 11:08:59;;;;;;;14.10;12.15;;;;;;;12.94;41.53;102271.40;1637094;84;21158;-54
2022/02/26 11:11:26;;;;;;;13.22;11.90;;;;;;;12.99;41.25;102260.49;1633394;85;21544;-54
2022/02/26 11:13:55;;;;;;;14.35;12.47;;;;;;;13.07;41.11;102269.59;1641821;84;21068;-54
2022/02/26 11:16:23;;;;;;;14.18;12.70;;;;;;;13.10;40.95;102266.10;1642214;85;21073;-53
2022/02/26 11:18:54;;;;;;;13.78;12.33;;;;;;;13.10;40.72;102266.98;1637798;84;21013;-54
2022/02/26 11:21:23;;;;;;;14.30;12.73;;;;;;;13.12;40.70;102264.34;1647578;86;21074;-54